createdAt,value
2019-01-06T00:01:57.563Z,12.47
2019-01-06T00:04:26.118Z,13.00
2019-01-06T00:07:10.962Z,13.17
2019-01-06T00:09:39.535Z,12.37
2019-01-06T00:12:15.666Z,12.87
2019-01-06T00:14:46.727Z,12.30
2019-01-06T00:17:31.562Z,11.73
2019-01-06T00:20:18.349Z,12.27
2019-01-06T00:22:49.636Z,13.53
2019-01-06T00:25:24.029Z,12.17
2019-01-06T00:28:04.544Z,12.77
2019-01-06T00:30:35.935Z,12.70
2019-01-06T00:33:04.651Z,14.00
2019-01-06T00:35:39.939Z,12.73
2019-01-06T00:38:08.448Z,13.67
2019-01-06T00:40:39.839Z,13.30
2019-01-06T00:43:24.761Z,13.80
2019-01-06T00:45:59.215Z,13.77
2019-01-06T00:48:30.295Z,13.67
2019-01-06T00:51:14.479Z,14.07
2019-01-06T00:53:42.862Z,13.57
2019-01-06T00:56:11.919Z,14.47
2019-01-06T00:58:40.253Z,14.87
2019-01-06T01:01:25.665Z,15.33
2019-01-06T01:03:54.256Z,15.37
2019-01-06T01:06:28.400Z,15.60
2019-01-06T01:09:01.139Z,15.67
2019-01-06T01:11:46.002Z,17.27
2019-01-06T01:14:14.503Z,17.47
2019-01-06T01:16:52.050Z,17.27
2019-01-06T01:19:20.490Z,16.67
2019-01-06T01:22:07.069Z,17.20
2019-01-06T01:24:41.312Z,17.70
2019-01-06T01:27:18.851Z,16.80
2019-01-06T01:30:04.274Z,18.33
2019-01-06T01:32:35.333Z,18.57
2019-01-06T01:35:03.888Z,17.23
2019-01-06T01:37:32.208Z,17.60
2019-01-06T01:40:09.304Z,16.60
2019-01-06T01:42:40.349Z,16.80
2019-01-06T01:45:25.644Z,16.27
2019-01-06T01:47:54.195Z,16.63
2019-01-06T01:50:22.537Z,16.77
2019-01-06T01:52:59.785Z,18.60
2019-01-06T01:55:28.194Z,17.37
2019-01-06T01:58:13.089Z,17.17
2019-01-06T02:00:44.389Z,17.37
2019-01-06T02:03:12.806Z,17.87
2019-01-06T02:05:56.191Z,17.23
2019-01-06T02:08:42.861Z,17.77
2019-01-06T02:11:26.383Z,17.87
2019-01-06T02:14:00.414Z,18.33
2019-01-06T02:16:28.911Z,17.70
2019-01-06T02:19:13.717Z,18.57
2019-01-06T02:22:00.330Z,19.33
2019-01-06T02:24:38.385Z,18.80
2019-01-06T02:27:06.851Z,19.27
2019-01-06T02:29:35.504Z,17.90
2019-01-06T02:32:15.669Z,18.13
2019-01-06T02:34:56.141Z,19.13
2019-01-06T02:37:24.601Z,18.97
2019-01-06T02:39:58.723Z,18.73
2019-01-06T02:42:43.957Z,19.10
2019-01-06T02:45:24.576Z,19.07
2019-01-06T02:47:56.048Z,18.97
2019-01-06T02:50:27.317Z,18.80
2019-01-06T02:53:00.699Z,19.00
2019-01-06T02:55:29.197Z,18.67
2019-01-06T02:58:14.206Z,19.73
2019-01-06T03:00:46.649Z,17.77
2019-01-06T03:03:14.951Z,17.80
2019-01-06T03:05:52.117Z,17.13
2019-01-06T03:08:20.546Z,15.67
2019-01-06T03:10:51.859Z,17.53
2019-01-06T03:13:32.322Z,14.23
2019-01-06T03:16:00.849Z,16.40
2019-01-06T03:18:29.479Z,14.73
2019-01-06T03:21:15.598Z,15.13
2019-01-06T03:23:49.939Z,14.20
2019-01-06T03:26:24.080Z,14.30
2019-01-06T03:28:58.746Z,14.33
2019-01-06T03:31:35.833Z,12.60
2019-01-06T03:34:06.922Z,14.07
2019-01-06T03:36:42.188Z,14.03
2019-01-06T03:39:25.903Z,14.30
2019-01-06T03:42:03.285Z,13.00
2019-01-06T03:44:48.889Z,13.47
2019-01-06T03:47:17.254Z,13.53
2019-01-06T03:50:00.890Z,13.27
2019-01-06T03:52:29.376Z,12.57
2019-01-06T03:55:14.168Z,12.90
2019-01-06T03:58:00.820Z,13.07
2019-01-06T04:00:45.830Z,13.33
2019-01-06T04:03:14.306Z,13.23
2019-01-06T04:05:45.440Z,12.87
2019-01-06T04:08:22.520Z,12.77
2019-01-06T04:11:15.082Z,12.67
2019-01-06T04:13:56.527Z,11.87
2019-01-06T04:16:33.854Z,12.70
2019-01-06T04:19:18.887Z,11.73
2019-01-06T04:21:53.163Z,12.90
2019-01-06T04:24:27.359Z,12.73
2019-01-06T04:27:04.803Z,13.40
2019-01-06T04:29:33.096Z,13.53
2019-01-06T04:32:10.481Z,12.47
2019-01-06T04:34:41.946Z,13.87
2019-01-06T04:37:19.549Z,12.93
2019-01-06T04:39:53.700Z,13.13
2019-01-06T04:42:38.825Z,12.50
2019-01-06T04:45:13.335Z,12.53
2019-01-06T04:47:44.929Z,13.20
2019-01-06T04:50:22.959Z,12.53
2019-01-06T04:53:08.271Z,12.90
2019-01-06T04:55:36.804Z,12.20
2019-01-06T04:58:11.385Z,12.83
2019-01-06T05:00:56.700Z,13.00
2019-01-06T05:03:35.323Z,11.13
2019-01-06T05:06:20.428Z,11.30
2019-01-06T05:09:05.602Z,12.03
2019-01-06T05:11:40.142Z,12.10
2019-01-06T05:14:25.033Z,10.67
2019-01-06T05:17:13.803Z,10.73
2019-01-06T05:19:54.254Z,10.93
2019-01-06T05:22:28.655Z,11.93
2019-01-06T05:25:13.882Z,11.90
2019-01-06T05:27:54.701Z,11.90
2019-01-06T05:30:35.347Z,12.77
2019-01-06T05:33:12.709Z,12.93
2019-01-06T05:35:49.810Z,11.33
2019-01-06T05:38:24.290Z,11.00
2019-01-06T05:40:53.311Z,11.63
2019-01-06T05:43:38.501Z,11.20
2019-01-06T05:46:09.769Z,10.90
2019-01-06T05:48:55.049Z,11.40
2019-01-06T05:51:26.207Z,12.03
2019-01-06T05:53:57.266Z,10.77
2019-01-06T05:56:28.787Z,11.20
2019-01-06T05:59:00.168Z,11.47
2019-01-06T06:01:45.398Z,11.27
2019-01-06T06:04:31.309Z,11.10
2019-01-06T06:07:15.092Z,11.93
2019-01-06T06:09:49.078Z,11.67
2019-01-06T06:12:26.595Z,11.40
2019-01-06T06:15:11.497Z,11.40
2019-01-06T06:17:46.117Z,11.80
2019-01-06T06:20:17.493Z,12.00
2019-01-06T06:23:04.783Z,10.57
2019-01-06T06:25:51.422Z,11.80
2019-01-06T06:28:36.666Z,11.10
2019-01-06T06:31:15.681Z,10.73
2019-01-06T06:33:49.962Z,10.60
2019-01-06T06:36:27.426Z,10.93
2019-01-06T06:39:12.340Z,11.00
2019-01-06T06:41:57.350Z,11.10
2019-01-06T06:44:25.761Z,10.87
2019-01-06T06:46:57.109Z,10.77
2019-01-06T06:49:34.554Z,9.97
2019-01-06T06:52:02.985Z,9.37
2019-01-06T06:54:34.475Z,9.67
2019-01-06T06:57:40.171Z,9.90
2019-01-06T07:00:31.964Z,8.73
2019-01-06T07:03:13.245Z,10.53
2019-01-06T07:05:41.892Z,10.43
2019-01-06T07:08:10.370Z,11.20
2019-01-06T07:10:56.985Z,11.17
2019-01-06T07:13:37.360Z,10.97
2019-01-06T07:16:09.566Z,10.77
2019-01-06T07:18:38.220Z,10.43
2019-01-06T07:21:13.087Z,11.17
2019-01-06T07:23:44.720Z,11.00
2019-01-06T07:26:16.029Z,11.90
2019-01-06T07:28:47.097Z,12.17
2019-01-06T07:31:32.264Z,12.50
2019-01-06T07:34:03.558Z,12.43
2019-01-06T07:36:32.016Z,13.17
2019-01-06T07:39:06.276Z,12.93
2019-01-06T07:41:51.152Z,13.73
2019-01-06T07:44:36.295Z,12.90
2019-01-06T07:47:10.783Z,14.67
2019-01-06T07:49:51.408Z,13.67
2019-01-06T07:52:22.551Z,13.07
2019-01-06T07:55:02.835Z,13.37
2019-01-06T07:57:34.370Z,13.80
2019-01-06T08:00:19.387Z,14.33
2019-01-06T08:03:04.451Z,14.03
2019-01-06T08:05:51.096Z,14.53
2019-01-06T08:08:34.615Z,14.67
2019-01-06T08:11:21.011Z,14.83
2019-01-06T08:14:06.041Z,15.30
2019-01-06T08:16:49.373Z,14.27
2019-01-06T08:19:36.002Z,14.77
2019-01-06T08:22:04.420Z,14.90
2019-01-06T08:24:35.478Z,15.27
2019-01-06T08:27:20.560Z,14.40
2019-01-06T08:29:50.171Z,13.90
2019-01-06T08:32:18.756Z,13.90
2019-01-06T08:34:47.563Z,13.77
2019-01-06T08:37:27.492Z,13.07
2019-01-06T08:39:58.989Z,12.93
2019-01-06T08:42:39.398Z,13.83
2019-01-06T08:45:21.340Z,13.97
2019-01-06T08:48:06.343Z,13.07
2019-01-06T08:50:34.740Z,13.77
2019-01-06T08:53:19.683Z,14.20
2019-01-06T08:56:04.837Z,14.17
2019-01-06T08:58:48.938Z,14.47
2019-01-06T09:01:23.590Z,14.13
2019-01-06T09:03:54.963Z,14.50
2019-01-06T09:06:29.124Z,14.13
2019-01-06T09:08:58.068Z,13.63
2019-01-06T09:11:41.547Z,13.90
2019-01-06T09:14:09.942Z,14.10
2019-01-06T09:16:41.409Z,13.43
2019-01-06T09:19:21.745Z,12.40
2019-01-06T09:21:56.810Z,13.47
2019-01-06T09:24:27.984Z,13.00
2019-01-06T09:26:56.536Z,13.90
2019-01-06T09:29:42.273Z,12.57
2019-01-06T09:32:13.552Z,12.33
2019-01-06T09:34:42.339Z,13.07
2019-01-06T09:37:11.823Z,12.27
2019-01-06T09:39:40.884Z,12.80
2019-01-06T09:42:12.382Z,11.40
2019-01-06T09:44:49.610Z,12.10
2019-01-06T09:47:29.942Z,12.80
2019-01-06T09:50:13.424Z,11.80
2019-01-06T09:52:41.886Z,11.60
2019-01-06T09:55:16.405Z,11.47
2019-01-06T09:57:48.849Z,11.40
2019-01-06T10:00:20.304Z,11.70
2019-01-06T10:02:48.931Z,11.67
2019-01-06T10:05:23.369Z,11.43
2019-01-06T10:08:08.354Z,11.67
2019-01-06T10:10:39.757Z,12.87
2019-01-06T10:13:08.108Z,12.40
2019-01-06T10:15:53.108Z,11.80
2019-01-06T10:18:25.755Z,12.30
2019-01-06T10:21:11.682Z,11.60
2019-01-06T10:23:46.039Z,11.37
2019-01-06T10:26:32.235Z,12.20
2019-01-06T10:29:00.762Z,11.17
2019-01-06T10:31:29.292Z,10.70
2019-01-06T10:34:14.174Z,10.87
2019-01-06T10:37:00.734Z,11.07
2019-01-06T10:39:47.684Z,11.07
2019-01-06T10:42:31.068Z,11.80
2019-01-06T10:44:59.472Z,11.27
2019-01-06T10:47:39.810Z,10.27
2019-01-06T10:50:12.392Z,10.77
2019-01-06T10:52:52.861Z,11.13
2019-01-06T10:55:24.045Z,10.33
2019-01-06T10:57:52.504Z,9.90
2019-01-06T11:00:21.101Z,10.33
2019-01-06T11:02:49.802Z,10.67
2019-01-06T11:05:26.649Z,9.97
2019-01-06T11:08:09.123Z,9.43
2019-01-06T11:10:46.906Z,9.70
2019-01-06T11:13:21.927Z,9.37
2019-01-06T11:15:50.801Z,9.30
2019-01-06T11:18:34.463Z,9.03
2019-01-06T11:21:05.610Z,9.30
2019-01-06T11:23:40.017Z,7.83
2019-01-06T11:26:24.878Z,8.70
2019-01-06T11:29:11.494Z,9.60
2019-01-06T11:31:39.950Z,9.57
2019-01-06T11:34:24.927Z,10.50
2019-01-06T11:37:02.339Z,9.03
2019-01-06T11:39:35.926Z,8.70
2019-01-06T11:42:20.750Z,9.17
2019-01-06T11:44:56.347Z,8.93
2019-01-06T11:47:33.973Z,8.77
2019-01-06T11:50:13.848Z,8.40
2019-01-06T11:52:42.402Z,8.17
2019-01-06T11:55:24.115Z,7.67
2019-01-06T11:57:58.617Z,8.23
2019-01-06T12:00:27.410Z,7.47
2019-01-06T12:02:58.531Z,7.57
2019-01-06T12:05:30.269Z,8.30
2019-01-06T12:08:05.742Z,7.67
2019-01-06T12:10:40.064Z,7.87
2019-01-06T12:13:08.966Z,7.33
2019-01-06T12:15:53.931Z,6.33
2019-01-06T12:18:40.695Z,6.40
2019-01-06T12:21:17.805Z,6.80
2019-01-06T12:23:46.396Z,7.13
2019-01-06T12:26:33.484Z,8.40
2019-01-06T12:29:16.987Z,7.37
2019-01-06T12:32:01.967Z,6.37
2019-01-06T12:34:36.307Z,5.97
2019-01-06T12:37:19.710Z,5.73
2019-01-06T12:40:06.621Z,5.50
2019-01-06T12:42:35.232Z,5.63
2019-01-06T12:45:06.809Z,6.43
2019-01-06T12:47:38.265Z,5.97
2019-01-06T12:50:11.669Z,6.30
2019-01-06T12:52:40.237Z,5.70
2019-01-06T12:55:20.763Z,5.67
2019-01-06T12:58:04.445Z,5.00
2019-01-06T13:00:43.553Z,5.40
2019-01-06T13:03:28.609Z,5.17
2019-01-06T13:05:59.933Z,5.17
2019-01-06T13:08:35.263Z,5.50
2019-01-06T13:11:03.769Z,5.43
2019-01-06T13:13:48.653Z,5.20
2019-01-06T13:16:26.149Z,5.10
2019-01-06T13:18:54.542Z,4.87
2019-01-06T13:21:22.990Z,5.17
2019-01-06T13:23:51.322Z,4.97
2019-01-06T13:26:19.781Z,5.00
2019-01-06T13:29:00.011Z,5.10
2019-01-06T13:31:31.334Z,5.60
2019-01-06T13:33:59.886Z,4.67
2019-01-06T13:36:43.560Z,4.47
2019-01-06T13:39:29.276Z,4.20
2019-01-06T13:41:58.469Z,4.77
2019-01-06T13:44:32.900Z,5.10
2019-01-06T13:47:16.597Z,4.57
2019-01-06T13:49:45.131Z,4.90
2019-01-06T13:52:30.096Z,4.67
2019-01-06T13:55:12.805Z,4.40
2019-01-06T13:57:56.321Z,4.77
2019-01-06T14:00:24.761Z,5.00
2019-01-06T14:03:06.819Z,4.57
2019-01-06T14:05:51.696Z,4.87
2019-01-06T14:08:26.318Z,5.03
2019-01-06T14:11:10.705Z,5.03
2019-01-06T14:13:47.871Z,4.57
2019-01-06T14:16:25.477Z,5.13
2019-01-06T14:19:10.571Z,5.03
2019-01-06T14:21:47.921Z,4.43
2019-01-06T14:24:32.907Z,4.63
2019-01-06T14:27:19.616Z,4.60
2019-01-06T14:30:00.225Z,4.60
2019-01-06T14:32:42.217Z,5.63
2019-01-06T14:35:10.677Z,5.83
2019-01-06T14:37:39.129Z,5.87
2019-01-06T14:40:26.139Z,4.90
2019-01-06T14:43:03.741Z,5.00
2019-01-06T14:45:40.747Z,4.70
2019-01-06T14:48:11.946Z,4.73
2019-01-06T14:50:57.127Z,4.87
2019-01-06T14:53:46.671Z,5.20
2019-01-06T14:56:15.129Z,5.10
2019-01-06T14:59:00.076Z,5.73
2019-01-06T15:01:28.446Z,5.07
2019-01-06T15:04:02.566Z,5.13
2019-01-06T15:06:31.547Z,5.33
2019-01-06T15:09:16.554Z,5.57
2019-01-06T15:11:51.034Z,5.10
2019-01-06T15:14:32.045Z,5.07
2019-01-06T15:17:03.447Z,6.30
2019-01-06T15:19:44.032Z,6.10
2019-01-06T15:22:12.786Z,6.00
2019-01-06T15:24:46.841Z,6.73
2019-01-06T15:27:30.237Z,6.83
2019-01-06T15:30:15.106Z,5.87
2019-01-06T15:32:46.567Z,6.90
2019-01-06T15:35:14.920Z,8.07
2019-01-06T15:37:45.945Z,7.60
2019-01-06T15:40:30.926Z,7.17
2019-01-06T15:43:05.236Z,7.90
2019-01-06T15:45:50.313Z,8.33
2019-01-06T15:48:21.857Z,7.67
2019-01-06T15:51:08.509Z,7.53
2019-01-06T15:53:37.044Z,7.57
2019-01-06T15:56:08.115Z,8.97
2019-01-06T15:58:51.725Z,9.10
2019-01-06T16:01:23.233Z,9.23
2019-01-06T16:03:54.307Z,9.13
2019-01-06T16:06:39.586Z,9.07
2019-01-06T16:09:26.598Z,10.10
2019-01-06T16:12:11.844Z,9.93
2019-01-06T16:14:42.911Z,9.20
2019-01-06T16:17:14.262Z,10.10
2019-01-06T16:19:59.588Z,10.87
2019-01-06T16:22:44.509Z,11.27
2019-01-06T16:25:25.357Z,11.77
2019-01-06T16:28:09.047Z,11.20
2019-01-06T16:30:54.213Z,11.63
2019-01-06T16:33:32.223Z,11.40
2019-01-06T16:36:18.982Z,11.03
2019-01-06T16:39:00.515Z,11.57
2019-01-06T16:41:31.825Z,11.73
2019-01-06T16:44:09.174Z,11.13
2019-01-06T16:48:09.963Z,11.50
2019-01-06T16:50:39.846Z,11.10
2019-01-06T16:53:21.539Z,12.13
2019-01-06T16:55:52.098Z,12.10
2019-01-06T16:58:23.187Z,11.80
2019-01-06T17:00:51.670Z,13.20
2019-01-06T17:03:22.272Z,13.83
2019-01-06T17:06:02.948Z,14.50
2019-01-06T17:08:40.299Z,14.27
2019-01-06T17:11:11.634Z,16.27
2019-01-06T17:13:40.108Z,16.40
2019-01-06T17:16:25.060Z,17.57
2019-01-06T17:18:56.412Z,17.70
2019-01-06T17:21:41.801Z,15.73
2019-01-06T17:24:25.385Z,17.47
2019-01-06T17:26:59.858Z,18.13
2019-01-06T17:29:31.144Z,17.47
2019-01-06T17:32:15.953Z,19.50
2019-01-06T17:34:56.582Z,18.37
2019-01-06T17:37:40.757Z,18.57
2019-01-06T17:40:26.998Z,17.90
2019-01-06T17:43:13.936Z,18.37
2019-01-06T17:45:58.841Z,18.50
2019-01-06T17:48:34.486Z,17.77
2019-01-06T17:51:15.043Z,18.30
2019-01-06T17:53:58.674Z,17.57
2019-01-06T17:56:44.358Z,17.33
2019-01-06T17:59:29.491Z,17.30
2019-01-06T18:02:07.150Z,17.97
2019-01-06T18:04:55.055Z,18.73
2019-01-06T18:07:33.790Z,19.30
2019-01-06T18:10:11.024Z,18.23
2019-01-06T18:12:45.100Z,18.77
2019-01-06T18:15:18.282Z,19.50
2019-01-06T18:18:03.186Z,18.70
2019-01-06T18:20:48.530Z,19.10
2019-01-06T18:23:17.168Z,19.93
2019-01-06T18:26:02.367Z,19.53
2019-01-06T18:28:47.579Z,20.00
2019-01-06T18:31:36.704Z,21.17
2019-01-06T18:34:22.541Z,20.03
2019-01-06T18:37:07.698Z,19.50
2019-01-06T18:39:47.997Z,19.97
2019-01-06T18:42:22.349Z,17.30
2019-01-06T18:44:50.777Z,18.47
2019-01-06T18:47:21.824Z,18.23
2019-01-06T18:50:00.448Z,18.50
2019-01-06T18:52:40.841Z,17.80
2019-01-06T18:55:11.910Z,17.50
2019-01-06T18:57:47.992Z,18.90
2019-01-06T19:00:16.402Z,17.73
2019-01-06T19:02:44.730Z,18.57
2019-01-06T19:05:19.009Z,17.97
2019-01-06T19:08:02.471Z,17.37
2019-01-06T19:10:47.286Z,21.37
2019-01-06T19:13:18.629Z,19.80
2019-01-06T19:16:05.456Z,19.30
2019-01-06T19:18:45.704Z,19.80
2019-01-06T19:21:17.182Z,19.23
2019-01-06T19:23:48.485Z,20.83
2019-01-06T19:26:19.535Z,20.63
2019-01-06T19:28:50.826Z,21.97
2019-01-06T19:31:31.147Z,20.57
2019-01-06T19:34:02.506Z,22.23
2019-01-06T19:36:49.239Z,22.33
2019-01-06T19:39:34.406Z,22.03
2019-01-06T19:42:12.734Z,20.23
2019-01-06T19:44:56.126Z,21.67
2019-01-06T19:47:24.590Z,21.07
2019-01-06T19:50:03.306Z,20.20
2019-01-06T19:52:31.675Z,20.77
2019-01-06T19:55:00.368Z,21.93
2019-01-06T19:57:47.132Z,22.97
2019-01-06T20:00:29.204Z,23.23
2019-01-06T20:02:57.522Z,22.07
2019-01-06T20:05:42.691Z,22.87
2019-01-06T20:08:27.562Z,22.53
2019-01-06T20:11:12.012Z,22.17
2019-01-06T20:13:40.307Z,22.43
2019-01-06T20:16:26.304Z,21.80
2019-01-06T20:19:11.336Z,23.50
2019-01-06T20:21:51.844Z,22.33
2019-01-06T20:24:37.094Z,22.30
2019-01-06T20:27:08.582Z,21.53
2019-01-06T20:29:46.238Z,22.90
2019-01-06T20:32:32.121Z,22.27
2019-01-06T20:35:17.293Z,22.70
2019-01-06T20:37:50.453Z,22.87
2019-01-06T20:40:18.805Z,23.13
2019-01-06T20:43:02.180Z,21.47
2019-01-06T20:45:36.845Z,21.17
2019-01-06T20:48:21.992Z,21.70
2019-01-06T20:51:08.719Z,22.27
2019-01-06T20:53:55.002Z,21.37
2019-01-06T20:56:29.204Z,21.33
2019-01-06T20:59:14.348Z,20.90
2019-01-06T21:04:39.601Z,20.77
2019-01-06T21:07:23.122Z,20.63
2019-01-06T21:09:54.619Z,21.43
2019-01-06T21:12:29.149Z,22.63
2019-01-06T21:15:14.299Z,21.97
2019-01-06T21:17:54.766Z,22.13
2019-01-06T21:20:41.148Z,20.07
2019-01-06T21:23:26.289Z,21.17
2019-01-06T21:26:11.565Z,20.47
2019-01-06T21:28:56.676Z,22.30
2019-01-06T21:31:41.982Z,21.23
2019-01-06T21:34:22.583Z,20.90
2019-01-06T21:36:53.650Z,22.03
2019-01-06T21:39:38.328Z,23.37
2019-01-06T21:42:15.994Z,23.53
2019-01-06T21:44:44.426Z,23.43
2019-01-06T21:47:15.407Z,23.50
2019-01-06T21:49:52.831Z,24.33
2019-01-06T21:52:37.887Z,23.50
2019-01-06T21:55:18.989Z,23.27
2019-01-06T21:57:53.326Z,23.83
2019-01-06T22:00:40.214Z,23.70
2019-01-06T22:03:14.386Z,23.10
2019-01-06T22:05:54.937Z,22.70
2019-01-06T22:08:35.543Z,23.50
2019-01-06T22:11:19.190Z,23.27
2019-01-06T22:14:03.099Z,24.60
2019-01-06T22:16:37.198Z,22.10
2019-01-06T22:19:17.603Z,24.07
2019-01-06T22:21:46.110Z,23.37
2019-01-06T22:24:17.422Z,23.50
2019-01-06T22:26:45.859Z,22.63
2019-01-06T22:29:23.448Z,24.03
2019-01-06T22:32:01.098Z,24.10
2019-01-06T22:34:29.404Z,23.73
2019-01-06T22:37:14.631Z,24.27
2019-01-06T22:39:42.910Z,24.30
2019-01-06T22:42:17.071Z,25.27
2019-01-06T22:44:51.198Z,24.73
2019-01-06T22:47:22.296Z,27.33
2019-01-06T22:49:59.762Z,26.83
2019-01-06T22:52:28.088Z,28.33
2019-01-06T22:55:11.450Z,27.50
2019-01-06T22:57:42.353Z,26.73
2019-01-06T23:00:36.979Z,26.00
2019-01-06T23:03:22.021Z,25.20
2019-01-06T23:05:50.353Z,27.10
2019-01-06T23:08:18.630Z,25.97
2019-01-06T23:10:56.075Z,26.30
2019-01-06T23:13:36.442Z,27.07
2019-01-06T23:16:04.760Z,25.63
2019-01-06T23:18:33.173Z,27.17
2019-01-06T23:21:11.566Z,25.60
2019-01-06T23:23:39.880Z,24.37
2019-01-06T23:26:08.201Z,24.93
2019-01-06T23:28:36.508Z,26.23
2019-01-06T23:31:10.587Z,26.00
2019-01-06T23:33:38.933Z,27.20
2019-01-06T23:36:10.214Z,27.13
2019-01-06T23:38:53.552Z,27.03
2019-01-06T23:41:36.969Z,28.17
2019-01-06T23:44:17.259Z,26.97
2019-01-06T23:46:47.166Z,27.90
2019-01-06T23:49:21.040Z,26.27
2019-01-06T23:52:06.074Z,25.90
2019-01-06T23:54:40.433Z,26.77
2019-01-06T23:57:08.768Z,28.83
2019-01-06T23:59:43.290Z,29.60
